sensor_id;sensor_type;location;lat;lon;timestamp;temperature;humidity
9723;DHT22;4900;49.306;8.500;2022-07-24T00:00:07;24.48;57.85
9723;DHT22;4900;49.306;8.500;2022-07-24T00:03:11;24.40;57.69
9723;DHT22;4900;49.306;8.500;2022-07-24T00:06:14;24.36;57.46
9723;DHT22;4900;49.306;8.500;2022-07-24T00:09:18;24.28;57.44
9723;DHT22;4900;49.306;8.500;2022-07-24T00:12:21;24.24;57.53
9723;DHT22;4900;49.306;8.500;2022-07-24T00:15:24;24.16;57.77
9723;DHT22;4900;49.306;8.500;2022-07-24T00:18:28;24.09;57.94
9723;DHT22;4900;49.306;8.500;2022-07-24T00:21:31;24.00;58.12
9723;DHT22;4900;49.306;8.500;2022-07-24T00:24:34;23.98;58.29
9723;DHT22;4900;49.306;8.500;2022-07-24T00:27:37;23.90;58.54
9723;DHT22;4900;49.306;8.500;2022-07-24T00:30:40;23.85;58.69
9723;DHT22;4900;49.306;8.500;2022-07-24T00:33:43;23.79;58.94
9723;DHT22;4900;49.306;8.500;2022-07-24T00:36:46;23.71;59.13
9723;DHT22;4900;49.306;8.500;2022-07-24T00:39:49;23.66;59.29
9723;DHT22;4900;49.306;8.500;2022-07-24T00:42:53;23.61;59.27
9723;DHT22;4900;49.306;8.500;2022-07-24T00:45:56;23.58;59.17
9723;DHT22;4900;49.306;8.500;2022-07-24T00:49:00;23.52;59.49
9723;DHT22;4900;49.306;8.500;2022-07-24T00:52:03;23.47;59.52
9723;DHT22;4900;49.306;8.500;2022-07-24T00:55:07;23.40;59.80
9723;DHT22;4900;49.306;8.500;2022-07-24T00:58:10;23.38;59.95
9723;DHT22;4900;49.306;8.500;2022-07-24T01:01:16;23.35;60.07
9723;DHT22;4900;49.306;8.500;2022-07-24T01:04:19;23.33;60.02
9723;DHT22;4900;49.306;8.500;2022-07-24T01:07:23;23.27;60.02
9723;DHT22;4900;49.306;8.500;2022-07-24T01:10:27;23.22;60.20
9723;DHT22;4900;49.306;8.500;2022-07-24T01:13:31;23.16;60.46
9723;DHT22;4900;49.306;8.500;2022-07-24T01:16:35;23.12;60.39
9723;DHT22;4900;49.306;8.500;2022-07-24T01:19:38;23.06;60.32
9723;DHT22;4900;49.306;8.500;2022-07-24T01:22:41;22.99;60.47
9723;DHT22;4900;49.306;8.500;2022-07-24T01:25:45;22.93;60.70
9723;DHT22;4900;49.306;8.500;2022-07-24T01:28:48;22.92;60.90
9723;DHT22;4900;49.306;8.500;2022-07-24T01:31:51;22.89;61.39
9723;DHT22;4900;49.306;8.500;2022-07-24T01:34:54;22.85;61.49
9723;DHT22;4900;49.306;8.500;2022-07-24T01:37:58;22.82;61.73
9723;DHT22;4900;49.306;8.500;2022-07-24T01:41:01;22.79;61.81
9723;DHT22;4900;49.306;8.500;2022-07-24T01:44:05;22.78;61.53
9723;DHT22;4900;49.306;8.500;2022-07-24T01:47:07;22.72;61.09
9723;DHT22;4900;49.306;8.500;2022-07-24T01:50:11;22.75;60.82
9723;DHT22;4900;49.306;8.500;2022-07-24T01:53:15;22.68;60.78
9723;DHT22;4900;49.306;8.500;2022-07-24T01:56:18;22.64;60.52
9723;DHT22;4900;49.306;8.500;2022-07-24T01:59:21;22.64;60.39
9723;DHT22;4900;49.306;8.500;2022-07-24T02:02:26;22.62;60.29
9723;DHT22;4900;49.306;8.500;2022-07-24T02:05:30;22.58;60.27
9723;DHT22;4900;49.306;8.500;2022-07-24T02:08:33;22.55;60.27
9723;DHT22;4900;49.306;8.500;2022-07-24T02:11:36;22.55;60.42
9723;DHT22;4900;49.306;8.500;2022-07-24T02:14:39;22.50;60.56
9723;DHT22;4900;49.306;8.500;2022-07-24T02:17:50;22.48;60.66
9723;DHT22;4900;49.306;8.500;2022-07-24T02:20:53;22.41;61.05
9723;DHT22;4900;49.306;8.500;2022-07-24T02:23:56;22.38;61.40
9723;DHT22;4900;49.306;8.500;2022-07-24T02:26:59;22.38;61.72
9723;DHT22;4900;49.306;8.500;2022-07-24T02:30:05;22.34;61.89
9723;DHT22;4900;49.306;8.500;2022-07-24T02:33:09;22.31;62.06
9723;DHT22;4900;49.306;8.500;2022-07-24T02:36:13;22.27;62.27
9723;DHT22;4900;49.306;8.500;2022-07-24T02:39:16;22.26;62.52
9723;DHT22;4900;49.306;8.500;2022-07-24T02:42:19;22.26;62.64
9723;DHT22;4900;49.306;8.500;2022-07-24T02:45:23;22.23;62.58
9723;DHT22;4900;49.306;8.500;2022-07-24T02:48:26;22.19;62.64
9723;DHT22;4900;49.306;8.500;2022-07-24T02:51:29;22.19;62.54
9723;DHT22;4900;49.306;8.500;2022-07-24T02:54:33;22.14;62.55
9723;DHT22;4900;49.306;8.500;2022-07-24T02:57:36;22.13;62.57
9723;DHT22;4900;49.306;8.500;2022-07-24T03:00:39;22.09;62.47
9723;DHT22;4900;49.306;8.500;2022-07-24T03:03:42;22.05;62.55
9723;DHT22;4900;49.306;8.500;2022-07-24T03:06:45;22.00;62.55
9723;DHT22;4900;49.306;8.500;2022-07-24T03:09:48;21.93;62.62
9723;DHT22;4900;49.306;8.500;2022-07-24T03:12:52;21.91;62.68
9723;DHT22;4900;49.306;8.500;2022-07-24T03:15:55;21.88;62.73
9723;DHT22;4900;49.306;8.500;2022-07-24T03:18:57;21.88;62.55
9723;DHT22;4900;49.306;8.500;2022-07-24T03:22:01;21.81;62.47
9723;DHT22;4900;49.306;8.500;2022-07-24T03:25:05;21.78;62.35
9723;DHT22;4900;49.306;8.500;2022-07-24T03:28:08;21.72;62.30
9723;DHT22;4900;49.306;8.500;2022-07-24T03:31:11;21.72;62.28
9723;DHT22;4900;49.306;8.500;2022-07-24T03:34:14;21.71;62.05
9723;DHT22;4900;49.306;8.500;2022-07-24T03:37:17;21.68;61.97
9723;DHT22;4900;49.306;8.500;2022-07-24T03:40:20;21.65;61.98
9723;DHT22;4900;49.306;8.500;2022-07-24T03:43:24;21.66;61.70
9723;DHT22;4900;49.306;8.500;2022-07-24T03:46:27;21.64;61.59
9723;DHT22;4900;49.306;8.500;2022-07-24T03:49:33;21.64;61.50
9723;DHT22;4900;49.306;8.500;2022-07-24T03:52:36;21.62;61.52
9723;DHT22;4900;49.306;8.500;2022-07-24T03:55:40;21.59;61.52
9723;DHT22;4900;49.306;8.500;2022-07-24T03:58:42;21.61;61.48
9723;DHT22;4900;49.306;8.500;2022-07-24T04:01:46;21.59;61.34
9723;DHT22;4900;49.306;8.500;2022-07-24T04:04:49;21.59;61.26
9723;DHT22;4900;49.306;8.500;2022-07-24T04:07:52;21.59;61.41
9723;DHT22;4900;49.306;8.500;2022-07-24T04:10:55;21.61;61.15
9723;DHT22;4900;49.306;8.500;2022-07-24T04:14:01;21.64;60.98
9723;DHT22;4900;49.306;8.500;2022-07-24T04:17:04;21.62;61.08
9723;DHT22;4900;49.306;8.500;2022-07-24T04:20:09;21.58;61.30
9723;DHT22;4900;49.306;8.500;2022-07-24T04:23:12;21.65;61.22
9723;DHT22;4900;49.306;8.500;2022-07-24T04:26:16;21.68;61.20
9723;DHT22;4900;49.306;8.500;2022-07-24T04:29:19;21.66;61.09
9723;DHT22;4900;49.306;8.500;2022-07-24T04:32:22;21.71;61.10
9723;DHT22;4900;49.306;8.500;2022-07-24T04:35:26;21.76;60.77
9723;DHT22;4900;49.306;8.500;2022-07-24T04:38:29;21.81;60.72
9723;DHT22;4900;49.306;8.500;2022-07-24T04:41:33;21.85;60.72
9723;DHT22;4900;49.306;8.500;2022-07-24T04:44:36;21.89;60.67
9723;DHT22;4900;49.306;8.500;2022-07-24T04:47:39;21.93;60.77
9723;DHT22;4900;49.306;8.500;2022-07-24T04:50:42;22.00;60.80
9723;DHT22;4900;49.306;8.500;2022-07-24T04:53:45;22.00;60.91
9723;DHT22;4900;49.306;8.500;2022-07-24T04:56:49;22.10;60.93
9723;DHT22;4900;49.306;8.500;2022-07-24T04:59:52;22.13;60.98
9723;DHT22;4900;49.306;8.500;2022-07-24T05:02:55;22.24;61.09
9723;DHT22;4900;49.306;8.500;2022-07-24T05:05:59;22.27;61.24
9723;DHT22;4900;49.306;8.500;2022-07-24T05:09:02;22.31;61.16
9723;DHT22;4900;49.306;8.500;2022-07-24T05:12:06;22.38;60.88
9723;DHT22;4900;49.306;8.500;2022-07-24T05:15:09;22.41;60.81
9723;DHT22;4900;49.306;8.500;2022-07-24T05:18:13;22.47;60.66
9723;DHT22;4900;49.306;8.500;2022-07-24T05:21:16;22.54;60.59
9723;DHT22;4900;49.306;8.500;2022-07-24T05:24:19;22.62;60.35
9723;DHT22;4900;49.306;8.500;2022-07-24T05:27:22;22.71;60.19
9723;DHT22;4900;49.306;8.500;2022-07-24T05:30:25;22.76;60.03
9723;DHT22;4900;49.306;8.500;2022-07-24T05:33:29;22.82;59.83
9723;DHT22;4900;49.306;8.500;2022-07-24T05:36:33;22.92;59.47
9723;DHT22;4900;49.306;8.500;2022-07-24T05:39:36;22.99;59.24
9723;DHT22;4900;49.306;8.500;2022-07-24T05:42:39;23.07;59.13
9723;DHT22;4900;49.306;8.500;2022-07-24T05:45:43;23.15;58.98
9723;DHT22;4900;49.306;8.500;2022-07-24T05:48:46;23.26;58.85
9723;DHT22;4900;49.306;8.500;2022-07-24T05:51:50;23.40;58.73
9723;DHT22;4900;49.306;8.500;2022-07-24T05:54:53;23.48;58.62
9723;DHT22;4900;49.306;8.500;2022-07-24T05:57:56;23.58;58.49
9723;DHT22;4900;49.306;8.500;2022-07-24T06:00:59;23.75;58.32
9723;DHT22;4900;49.306;8.500;2022-07-24T06:04:02;24.13;57.39
9723;DHT22;4900;49.306;8.500;2022-07-24T06:07:05;24.61;56.05
9723;DHT22;4900;49.306;8.500;2022-07-24T06:10:10;25.22;54.38
9723;DHT22;4900;49.306;8.500;2022-07-24T06:13:13;25.84;53.06
9723;DHT22;4900;49.306;8.500;2022-07-24T06:16:17;26.44;51.63
9723;DHT22;4900;49.306;8.500;2022-07-24T06:19:20;26.91;50.51
9723;DHT22;4900;49.306;8.500;2022-07-24T06:22:23;27.35;49.57
9723;DHT22;4900;49.306;8.500;2022-07-24T06:25:27;27.86;48.35
9723;DHT22;4900;49.306;8.500;2022-07-24T06:28:30;28.34;47.44
9723;DHT22;4900;49.306;8.500;2022-07-24T06:31:33;28.67;46.78
9723;DHT22;4900;49.306;8.500;2022-07-24T06:34:36;29.04;46.37
9723;DHT22;4900;49.306;8.500;2022-07-24T06:37:40;29.61;44.95
9723;DHT22;4900;49.306;8.500;2022-07-24T06:40:43;29.69;44.59
9723;DHT22;4900;49.306;8.500;2022-07-24T06:43:47;30.06;44.17
9723;DHT22;4900;49.306;8.500;2022-07-24T06:46:50;30.47;43.55
9723;DHT22;4900;49.306;8.500;2022-07-24T06:49:53;30.27;44.55
9723;DHT22;4900;49.306;8.500;2022-07-24T06:52:57;30.79;43.42
9723;DHT22;4900;49.306;8.500;2022-07-24T06:56:01;31.05;43.03
9723;DHT22;4900;49.306;8.500;2022-07-24T06:59:04;31.03;42.84
9723;DHT22;4900;49.306;8.500;2022-07-24T07:02:07;31.07;42.53
9723;DHT22;4900;49.306;8.500;2022-07-24T07:05:10;31.48;42.16
9723;DHT22;4900;49.306;8.500;2022-07-24T07:08:13;31.88;41.80
9723;DHT22;4900;49.306;8.500;2022-07-24T07:11:16;31.95;41.33
9723;DHT22;4900;49.306;8.500;2022-07-24T07:14:20;32.06;41.73
9723;DHT22;4900;49.306;8.500;2022-07-24T07:17:23;31.97;41.08
9723;DHT22;4900;49.306;8.500;2022-07-24T07:20:26;31.85;41.05
9723;DHT22;4900;49.306;8.500;2022-07-24T07:23:30;32.29;40.76
9723;DHT22;4900;49.306;8.500;2022-07-24T07:26:33;32.41;41.12
9723;DHT22;4900;49.306;8.500;2022-07-24T07:29:37;31.97;41.05
9723;DHT22;4900;49.306;8.500;2022-07-24T07:32:40;32.33;41.10
9723;DHT22;4900;49.306;8.500;2022-07-24T07:35:43;32.57;40.87
9723;DHT22;4900;49.306;8.500;2022-07-24T07:38:47;32.45;40.25
9723;DHT22;4900;49.306;8.500;2022-07-24T07:41:50;32.72;39.71
9723;DHT22;4900;49.306;8.500;2022-07-24T07:44:53;32.53;39.45
9723;DHT22;4900;49.306;8.500;2022-07-24T07:47:56;33.61;38.44
9723;DHT22;4900;49.306;8.500;2022-07-24T07:51:00;33.88;38.73
9723;DHT22;4900;49.306;8.500;2022-07-24T07:54:03;34.12;37.79
9723;DHT22;4900;49.306;8.500;2022-07-24T07:57:06;34.27;38.32
9723;DHT22;4900;49.306;8.500;2022-07-24T08:00:10;34.08;38.05
9723;DHT22;4900;49.306;8.500;2022-07-24T08:03:14;34.67;37.60
9723;DHT22;4900;49.306;8.500;2022-07-24T08:06:17;34.68;37.65
9723;DHT22;4900;49.306;8.500;2022-07-24T08:09:20;34.60;37.96
9723;DHT22;4900;49.306;8.500;2022-07-24T08:12:24;34.47;37.63
9723;DHT22;4900;49.306;8.500;2022-07-24T08:15:27;34.47;37.47
9723;DHT22;4900;49.306;8.500;2022-07-24T08:18:31;34.95;37.44
9723;DHT22;4900;49.306;8.500;2022-07-24T08:21:34;34.36;37.75
9723;DHT22;4900;49.306;8.500;2022-07-24T08:24:38;35.59;36.73
9723;DHT22;4900;49.306;8.500;2022-07-24T08:27:42;35.66;36.41
9723;DHT22;4900;49.306;8.500;2022-07-24T08:30:45;35.29;36.88
9723;DHT22;4900;49.306;8.500;2022-07-24T08:33:48;35.80;36.55
9723;DHT22;4900;49.306;8.500;2022-07-24T08:36:52;35.67;36.28
9723;DHT22;4900;49.306;8.500;2022-07-24T08:39:57;36.52;34.99
9723;DHT22;4900;49.306;8.500;2022-07-24T08:43:00;36.98;34.16
9723;DHT22;4900;49.306;8.500;2022-07-24T08:46:07;37.07;34.04
9723;DHT22;4900;49.306;8.500;2022-07-24T08:49:13;37.03;34.37
9723;DHT22;4900;49.306;8.500;2022-07-24T08:52:17;37.41;33.67
9723;DHT22;4900;49.306;8.500;2022-07-24T08:55:20;37.55;33.76
9723;DHT22;4900;49.306;8.500;2022-07-24T08:58:24;36.95;34.70
9723;DHT22;4900;49.306;8.500;2022-07-24T09:01:28;37.55;34.04
9723;DHT22;4900;49.306;8.500;2022-07-24T09:04:48;38.08;32.99
9723;DHT22;4900;49.306;8.500;2022-07-24T09:08:12;38.10;33.06
9723;DHT22;4900;49.306;8.500;2022-07-24T09:11:19;38.14;32.75
9723;DHT22;4900;49.306;8.500;2022-07-24T09:14:30;38.34;31.57
9723;DHT22;4900;49.306;8.500;2022-07-24T09:17:33;38.96;30.61
9723;DHT22;4900;49.306;8.500;2022-07-24T09:20:37;38.17;31.33
9723;DHT22;4900;49.306;8.500;2022-07-24T09:23:42;39.23;30.97
9723;DHT22;4900;49.306;8.500;2022-07-24T09:29:53;39.61;31.16
9723;DHT22;4900;49.306;8.500;2022-07-24T09:33:02;39.51;31.46
9723;DHT22;4900;49.306;8.500;2022-07-24T09:36:15;39.45;31.16
9723;DHT22;4900;49.306;8.500;2022-07-24T09:39:18;39.57;30.99
9723;DHT22;4900;49.306;8.500;2022-07-24T09:42:29;39.62;31.12
9723;DHT22;4900;49.306;8.500;2022-07-24T09:48:58;39.89;30.54
9723;DHT22;4900;49.306;8.500;2022-07-24T09:55:23;40.71;29.12
9723;DHT22;4900;49.306;8.500;2022-07-24T09:58:28;40.78;28.99
9723;DHT22;4900;49.306;8.500;2022-07-24T10:01:33;40.75;29.04
9723;DHT22;4900;49.306;8.500;2022-07-24T10:04:42;41.06;28.47
9723;DHT22;4900;49.306;8.500;2022-07-24T10:07:47;41.05;28.27
9723;DHT22;4900;49.306;8.500;2022-07-24T10:10:51;40.72;28.07
9723;DHT22;4900;49.306;8.500;2022-07-24T10:13:56;41.38;27.54
9723;DHT22;4900;49.306;8.500;2022-07-24T10:17:09;41.19;27.85
9723;DHT22;4900;49.306;8.500;2022-07-24T10:20:55;41.80;26.69
9723;DHT22;4900;49.306;8.500;2022-07-24T10:27:04;41.54;27.46
9723;DHT22;4900;49.306;8.500;2022-07-24T10:30:10;41.74;27.77
9723;DHT22;4900;49.306;8.500;2022-07-24T10:33:13;42.02;27.58
9723;DHT22;4900;49.306;8.500;2022-07-24T10:36:21;42.05;27.52
9723;DHT22;4900;49.306;8.500;2022-07-24T10:39:30;42.02;28.04
9723;DHT22;4900;49.306;8.500;2022-07-24T10:49:41;42.47;25.69
9723;DHT22;4900;49.306;8.500;2022-07-24T10:52:45;42.39;25.30
9723;DHT22;4900;49.306;8.500;2022-07-24T10:55:49;42.26;25.25
9723;DHT22;4900;49.306;8.500;2022-07-24T10:59:11;42.33;24.70
9723;DHT22;4900;49.306;8.500;2022-07-24T11:02:29;41.58;24.45
9723;DHT22;4900;49.306;8.500;2022-07-24T11:05:37;41.82;23.71
9723;DHT22;4900;49.306;8.500;2022-07-24T11:08:42;42.15;24.60
9723;DHT22;4900;49.306;8.500;2022-07-24T11:15:01;42.12;23.76
9723;DHT22;4900;49.306;8.500;2022-07-24T11:18:24;42.16;23.31
9723;DHT22;4900;49.306;8.500;2022-07-24T11:24:34;42.86;22.77
9723;DHT22;4900;49.306;8.500;2022-07-24T11:27:46;42.75;22.15
9723;DHT22;4900;49.306;8.500;2022-07-24T11:30:49;42.90;22.10
9723;DHT22;4900;49.306;8.500;2022-07-24T11:33:53;42.85;21.70
9723;DHT22;4900;49.306;8.500;2022-07-24T11:36:57;43.32;21.60
9723;DHT22;4900;49.306;8.500;2022-07-24T11:40:00;43.58;22.20
9723;DHT22;4900;49.306;8.500;2022-07-24T11:43:04;42.62;22.30
9723;DHT22;4900;49.306;8.500;2022-07-24T11:46:08;42.75;22.84
9723;DHT22;4900;49.306;8.500;2022-07-24T11:49:11;43.06;21.85
9723;DHT22;4900;49.306;8.500;2022-07-24T11:52:17;43.17;22.76
9723;DHT22;4900;49.306;8.500;2022-07-24T11:55:22;43.22;21.73
9723;DHT22;4900;49.306;8.500;2022-07-24T11:58:27;42.85;21.82
9723;DHT22;4900;49.306;8.500;2022-07-24T12:01:31;43.54;22.25
9723;DHT22;4900;49.306;8.500;2022-07-24T12:04:34;43.12;21.77
9723;DHT22;4900;49.306;8.500;2022-07-24T12:07:37;42.92;20.76
9723;DHT22;4900;49.306;8.500;2022-07-24T12:10:40;43.76;20.78
9723;DHT22;4900;49.306;8.500;2022-07-24T12:13:44;43.39;20.63
9723;DHT22;4900;49.306;8.500;2022-07-24T12:16:54;42.88;20.76
9723;DHT22;4900;49.306;8.500;2022-07-24T12:19:58;43.19;20.17
9723;DHT22;4900;49.306;8.500;2022-07-24T12:23:07;43.27;20.02
9723;DHT22;4900;49.306;8.500;2022-07-24T12:26:10;43.51;19.50
9723;DHT22;4900;49.306;8.500;2022-07-24T12:29:13;43.82;19.75
9723;DHT22;4900;49.306;8.500;2022-07-24T12:32:17;44.21;20.17
9723;DHT22;4900;49.306;8.500;2022-07-24T12:35:21;44.78;19.51
9723;DHT22;4900;49.306;8.500;2022-07-24T12:38:35;44.64;19.99
9723;DHT22;4900;49.306;8.500;2022-07-24T12:41:44;44.73;19.21
9723;DHT22;4900;49.306;8.500;2022-07-24T12:44:47;44.77;19.09
9723;DHT22;4900;49.306;8.500;2022-07-24T12:48:20;44.74;18.77
9723;DHT22;4900;49.306;8.500;2022-07-24T12:51:24;44.67;19.52
9723;DHT22;4900;49.306;8.500;2022-07-24T12:54:33;44.91;19.13
9723;DHT22;4900;49.306;8.500;2022-07-24T12:57:37;44.87;19.39
9723;DHT22;4900;49.306;8.500;2022-07-24T13:00:56;44.91;19.23
9723;DHT22;4900;49.306;8.500;2022-07-24T13:04:01;45.15;19.44
9723;DHT22;4900;49.306;8.500;2022-07-24T13:07:07;45.46;19.58
9723;DHT22;4900;49.306;8.500;2022-07-24T13:10:10;45.34;19.77
9723;DHT22;4900;49.306;8.500;2022-07-24T13:13:13;45.57;19.48
9723;DHT22;4900;49.306;8.500;2022-07-24T13:16:16;46.15;19.74
9723;DHT22;4900;49.306;8.500;2022-07-24T13:19:20;46.29;19.52
9723;DHT22;4900;49.306;8.500;2022-07-24T13:22:23;46.65;19.05
9723;DHT22;4900;49.306;8.500;2022-07-24T13:25:27;45.87;19.05
9723;DHT22;4900;49.306;8.500;2022-07-24T13:28:31;46.52;19.09
9723;DHT22;4900;49.306;8.500;2022-07-24T13:31:34;46.92;19.21
9723;DHT22;4900;49.306;8.500;2022-07-24T13:34:37;46.35;18.97
9723;DHT22;4900;49.306;8.500;2022-07-24T13:37:40;46.31;19.01
9723;DHT22;4900;49.306;8.500;2022-07-24T13:40:44;46.49;19.22
9723;DHT22;4900;49.306;8.500;2022-07-24T13:43:48;46.59;19.44
9723;DHT22;4900;49.306;8.500;2022-07-24T13:46:52;46.27;19.34
9723;DHT22;4900;49.306;8.500;2022-07-24T13:49:55;46.63;18.79
9723;DHT22;4900;49.306;8.500;2022-07-24T13:52:58;46.72;18.77
9723;DHT22;4900;49.306;8.500;2022-07-24T13:56:01;46.36;18.44
9723;DHT22;4900;49.306;8.500;2022-07-24T13:59:04;46.43;18.51
9723;DHT22;4900;49.306;8.500;2022-07-24T14:02:08;46.96;18.15
9723;DHT22;4900;49.306;8.500;2022-07-24T14:05:11;47.13;18.02
9723;DHT22;4900;49.306;8.500;2022-07-24T14:08:14;47.47;18.24
9723;DHT22;4900;49.306;8.500;2022-07-24T14:11:17;47.49;18.19
9723;DHT22;4900;49.306;8.500;2022-07-24T14:14:21;47.66;18.33
9723;DHT22;4900;49.306;8.500;2022-07-24T14:17:24;47.88;18.20
9723;DHT22;4900;49.306;8.500;2022-07-24T14:20:27;48.00;17.97
9723;DHT22;4900;49.306;8.500;2022-07-24T14:23:31;47.79;18.36
9723;DHT22;4900;49.306;8.500;2022-07-24T14:26:35;47.78;18.21
9723;DHT22;4900;49.306;8.500;2022-07-24T14:29:38;47.83;18.37
9723;DHT22;4900;49.306;8.500;2022-07-24T14:32:41;47.83;18.20
9723;DHT22;4900;49.306;8.500;2022-07-24T14:35:44;47.44;18.04
9723;DHT22;4900;49.306;8.500;2022-07-24T14:38:47;47.04;18.23
9723;DHT22;4900;49.306;8.500;2022-07-24T14:41:50;47.07;18.42
9723;DHT22;4900;49.306;8.500;2022-07-24T14:44:53;46.93;18.11
9723;DHT22;4900;49.306;8.500;2022-07-24T14:47:56;47.38;18.30
9723;DHT22;4900;49.306;8.500;2022-07-24T14:50:59;47.37;18.33
9723;DHT22;4900;49.306;8.500;2022-07-24T14:54:02;47.49;18.36
9723;DHT22;4900;49.306;8.500;2022-07-24T14:57:05;48.10;18.19
9723;DHT22;4900;49.306;8.500;2022-07-24T15:00:10;48.12;17.59
9723;DHT22;4900;49.306;8.500;2022-07-24T15:03:14;47.93;18.10
9723;DHT22;4900;49.306;8.500;2022-07-24T15:06:17;47.56;18.34
9723;DHT22;4900;49.306;8.500;2022-07-24T15:09:20;47.15;18.42
9723;DHT22;4900;49.306;8.500;2022-07-24T15:12:23;47.24;18.67
9723;DHT22;4900;49.306;8.500;2022-07-24T15:15:26;47.48;18.24
9723;DHT22;4900;49.306;8.500;2022-07-24T15:18:30;47.58;18.46
9723;DHT22;4900;49.306;8.500;2022-07-24T15:21:33;46.96;18.46
9723;DHT22;4900;49.306;8.500;2022-07-24T15:24:36;46.75;18.54
9723;DHT22;4900;49.306;8.500;2022-07-24T15:27:39;47.06;18.32
9723;DHT22;4900;49.306;8.500;2022-07-24T15:30:43;47.28;18.47
9723;DHT22;4900;49.306;8.500;2022-07-24T15:33:46;47.54;18.92
9723;DHT22;4900;49.306;8.500;2022-07-24T15:36:49;47.49;18.85
9723;DHT22;4900;49.306;8.500;2022-07-24T15:39:52;47.14;18.58
9723;DHT22;4900;49.306;8.500;2022-07-24T15:42:56;47.02;18.41
9723;DHT22;4900;49.306;8.500;2022-07-24T15:46:00;47.28;18.66
9723;DHT22;4900;49.306;8.500;2022-07-24T15:49:05;47.17;18.85
9723;DHT22;4900;49.306;8.500;2022-07-24T15:52:08;47.17;19.17
9723;DHT22;4900;49.306;8.500;2022-07-24T15:55:11;46.94;18.95
9723;DHT22;4900;49.306;8.500;2022-07-24T15:58:14;47.14;19.02
9723;DHT22;4900;49.306;8.500;2022-07-24T16:01:17;46.86;18.65
9723;DHT22;4900;49.306;8.500;2022-07-24T16:04:20;46.48;18.43
9723;DHT22;4900;49.306;8.500;2022-07-24T16:07:23;46.38;18.58
9723;DHT22;4900;49.306;8.500;2022-07-24T16:10:27;46.34;18.93
9723;DHT22;4900;49.306;8.500;2022-07-24T16:13:30;45.81;18.89
9723;DHT22;4900;49.306;8.500;2022-07-24T16:16:33;46.23;19.07
9723;DHT22;4900;49.306;8.500;2022-07-24T16:19:38;46.23;19.27
9723;DHT22;4900;49.306;8.500;2022-07-24T16:22:41;46.15;19.17
9723;DHT22;4900;49.306;8.500;2022-07-24T16:25:44;45.59;19.15
9723;DHT22;4900;49.306;8.500;2022-07-24T16:28:47;45.35;19.30
9723;DHT22;4900;49.306;8.500;2022-07-24T16:31:51;45.28;19.21
9723;DHT22;4900;49.306;8.500;2022-07-24T16:34:54;45.28;19.28
9723;DHT22;4900;49.306;8.500;2022-07-24T16:37:57;44.62;19.81
9723;DHT22;4900;49.306;8.500;2022-07-24T16:41:00;44.68;20.07
9723;DHT22;4900;49.306;8.500;2022-07-24T16:44:04;44.47;20.29
9723;DHT22;4900;49.306;8.500;2022-07-24T16:47:07;43.91;20.34
9723;DHT22;4900;49.306;8.500;2022-07-24T16:50:11;43.44;20.96
9723;DHT22;4900;49.306;8.500;2022-07-24T16:53:14;43.07;21.53
9723;DHT22;4900;49.306;8.500;2022-07-24T16:56:17;42.90;21.45
9723;DHT22;4900;49.306;8.500;2022-07-24T16:59:20;42.50;21.87
9723;DHT22;4900;49.306;8.500;2022-07-24T17:02:24;41.96;22.65
9723;DHT22;4900;49.306;8.500;2022-07-24T17:05:27;41.20;23.23
9723;DHT22;4900;49.306;8.500;2022-07-24T17:08:30;40.82;23.33
9723;DHT22;4900;49.306;8.500;2022-07-24T17:11:33;40.34;23.97
9723;DHT22;4900;49.306;8.500;2022-07-24T17:14:36;39.88;24.67
9723;DHT22;4900;49.306;8.500;2022-07-24T17:17:39;39.17;25.33
9723;DHT22;4900;49.306;8.500;2022-07-24T17:21:01;38.66;25.78
9723;DHT22;4900;49.306;8.500;2022-07-24T17:24:04;38.48;25.61
9723;DHT22;4900;49.306;8.500;2022-07-24T17:27:07;38.16;25.85
9723;DHT22;4900;49.306;8.500;2022-07-24T17:30:11;37.93;26.57
9723;DHT22;4900;49.306;8.500;2022-07-24T17:33:14;37.68;27.11
9723;DHT22;4900;49.306;8.500;2022-07-24T17:36:18;37.42;27.38
9723;DHT22;4900;49.306;8.500;2022-07-24T17:39:21;37.32;27.50
9723;DHT22;4900;49.306;8.500;2022-07-24T17:42:24;37.14;27.72
9723;DHT22;4900;49.306;8.500;2022-07-24T17:45:27;37.03;28.02
9723;DHT22;4900;49.306;8.500;2022-07-24T17:48:30;36.86;28.55
9723;DHT22;4900;49.306;8.500;2022-07-24T17:51:34;37.00;28.44
9723;DHT22;4900;49.306;8.500;2022-07-24T17:54:37;37.06;28.34
9723;DHT22;4900;49.306;8.500;2022-07-24T17:57:41;37.07;28.25
9723;DHT22;4900;49.306;8.500;2022-07-24T18:00:44;37.14;28.03
9723;DHT22;4900;49.306;8.500;2022-07-24T18:03:48;37.29;27.91
9723;DHT22;4900;49.306;8.500;2022-07-24T18:06:51;37.59;28.25
9723;DHT22;4900;49.306;8.500;2022-07-24T18:09:55;37.76;28.55
9723;DHT22;4900;49.306;8.500;2022-07-24T18:12:58;37.87;28.79
9723;DHT22;4900;49.306;8.500;2022-07-24T18:16:01;37.97;28.58
9723;DHT22;4900;49.306;8.500;2022-07-24T18:19:04;38.06;29.16
9723;DHT22;4900;49.306;8.500;2022-07-24T18:22:07;38.04;29.83
9723;DHT22;4900;49.306;8.500;2022-07-24T18:25:10;38.00;29.86
9723;DHT22;4900;49.306;8.500;2022-07-24T18:28:15;37.90;29.79
9723;DHT22;4900;49.306;8.500;2022-07-24T18:31:18;37.74;29.95
9723;DHT22;4900;49.306;8.500;2022-07-24T18:34:21;37.58;30.83
9723;DHT22;4900;49.306;8.500;2022-07-24T18:37:25;37.37;31.92
9723;DHT22;4900;49.306;8.500;2022-07-24T18:40:28;37.07;33.01
9723;DHT22;4900;49.306;8.500;2022-07-24T18:43:32;36.66;33.47
9723;DHT22;4900;49.306;8.500;2022-07-24T18:46:35;36.24;34.11
9723;DHT22;4900;49.306;8.500;2022-07-24T18:49:38;35.87;34.59
9723;DHT22;4900;49.306;8.500;2022-07-24T18:52:41;35.49;35.47
9723;DHT22;4900;49.306;8.500;2022-07-24T18:55:45;35.05;36.27
9723;DHT22;4900;49.306;8.500;2022-07-24T18:58:48;34.68;37.84
9723;DHT22;4900;49.306;8.500;2022-07-24T19:01:51;34.33;38.58
9723;DHT22;4900;49.306;8.500;2022-07-24T19:04:54;33.94;39.70
9723;DHT22;4900;49.306;8.500;2022-07-24T19:07:57;33.61;41.33
9723;DHT22;4900;49.306;8.500;2022-07-24T19:11:01;33.31;41.69
9723;DHT22;4900;49.306;8.500;2022-07-24T19:14:04;32.98;42.90
9723;DHT22;4900;49.306;8.500;2022-07-24T19:17:08;32.72;43.43
9723;DHT22;4900;49.306;8.500;2022-07-24T19:20:11;32.45;44.05
9723;DHT22;4900;49.306;8.500;2022-07-24T19:23:14;32.23;44.25
9723;DHT22;4900;49.306;8.500;2022-07-24T19:26:17;32.01;44.31
9723;DHT22;4900;49.306;8.500;2022-07-24T19:29:20;31.79;43.88
9723;DHT22;4900;49.306;8.500;2022-07-24T19:32:23;31.57;43.78
9723;DHT22;4900;49.306;8.500;2022-07-24T19:35:26;31.38;43.57
9723;DHT22;4900;49.306;8.500;2022-07-24T19:38:29;31.19;43.93
9723;DHT22;4900;49.306;8.500;2022-07-24T19:41:32;31.02;43.98
9723;DHT22;4900;49.306;8.500;2022-07-24T19:44:36;30.81;44.19
9723;DHT22;4900;49.306;8.500;2022-07-24T19:47:39;30.67;44.15
9723;DHT22;4900;49.306;8.500;2022-07-24T19:50:42;30.50;44.54
9723;DHT22;4900;49.306;8.500;2022-07-24T19:53:45;30.34;44.27
9723;DHT22;4900;49.306;8.500;2022-07-24T19:56:48;30.20;44.73
9723;DHT22;4900;49.306;8.500;2022-07-24T19:59:52;30.07;45.11
9723;DHT22;4900;49.306;8.500;2022-07-24T20:02:56;29.89;45.68
9723;DHT22;4900;49.306;8.500;2022-07-24T20:05:59;29.78;46.11
9723;DHT22;4900;49.306;8.500;2022-07-24T20:09:02;29.65;46.40
9723;DHT22;4900;49.306;8.500;2022-07-24T20:12:06;29.54;47.13
9723;DHT22;4900;49.306;8.500;2022-07-24T20:15:09;29.45;48.38
9723;DHT22;4900;49.306;8.500;2022-07-24T20:18:13;29.34;48.27
9723;DHT22;4900;49.306;8.500;2022-07-24T20:21:16;29.22;48.63
9723;DHT22;4900;49.306;8.500;2022-07-24T20:24:19;29.14;48.91
9723;DHT22;4900;49.306;8.500;2022-07-24T20:27:22;29.04;49.46